EGHH METAR and TAF | Updated Today

EGHH METAR

Bournemouth Airport

Observation time: 31 min. ago

EGHH 251850Z 29009KT 9999 SCT029 BKN036 16/11 Q1017

Need help? Read our tutorial on how to read METARs or read the parsed version below.

Bournemouth Airport (EGHH) METAR

  • Weather conditions on Wed, 25 May 2022 18:50:00 +0000 (31 min. ago):
  • Present conditions: Dry
  • Clouds: Scattered at 884 meters; broken sky at 1097 meters
  • Visibility: Greater than 10 km
  • Wind: 290 degrees at 9 knots
  • Temperature: 16 celsius
  • Dew point: 11 celsius
  • Pressure: 1017 millibars
  • Remarks: None


Useful to know...

EGHH TAF

Bournemouth Airport

TAF EGHH 251701Z 2518/2521 27012KT 9999 SCT020 TEMPO 2518/2521 28015G25KT
Observation time: 2:20 hr. ago
Need help? Read our tutorial on how to read TAFs or read the parsed version below.

Parsed version of TAF for Bournemouth Airport (EGHH)

  • From 25 May at 18:00 UTC, to day 25 of the month at 21:00 UTC
  • Clouds: Scattered at 610 meters
  • Visibility: Greater than 10 km
  • Wind: 270 degrees at 12
  • Expected to arise temporarily, from 25 May at 18:00 UTC, to day 25 of the month at 21:00 UTC
  • Wind: 280 degrees at 15